KBMG/BMG METAR and TAF weather

Enter ICAO airport designator
Station Type Date Time Source
KBMG METAR 2020/01/22 17:53 UTC NOAA

KBMG 221753Z 14007KT 10SM CLR M01/M07 A3031 RMK AO2 SLP275 T10061072 11006 21072 58025


Station Type Date Time Source
KBMG Decoded METAR 2020/01/22 17:53 UTC NOAA

MONROE COUNTY AIRPORT, IN, United States (KBMG) 39-09N 086-37W 257M
Jan 22, 2020 - 12:53 PM EST / 2020.01.22 1753 UTC
Wind: from the SE (140 degrees) at 8 MPH (7 KT):0
Visibility: 10 mile(s):0
Sky conditions: clear
Temperature: 30.9 F (-0.6 C)
Windchill: 23 F (-5 C):1
Dew Point: 19.0 F (-7.2 C)
Relative Humidity: 60%
Pressure (altimeter): 30.31 in. Hg (1026 hPa)
Pressure tendency: 0.07 inches (2.5 hPa) lower than three hours ago
ob: KBMG 221753Z 14007KT 10SM CLR M01/M07 A3031 RMK AO2 SLP275 T10061072 11006 21072 58025
cycle: 18

Station Type Date Time Source
KBMG TAF 2020/01/22 18:36 UTC NOAA

TAF KBMG 221735Z 2218/2318 18008KT P6SM OVC200
FM231000 16005KT P6SM OVC120
FM231700 17007KT P6SM OVC060

Example: see airport list